createdAt,value
2022-11-02T00:04:14.101Z,13.5
2022-11-02T00:09:14.081Z,13.4
2022-11-02T00:14:14.074Z,13.4
2022-11-02T00:19:14.113Z,13.3
2022-11-02T00:24:14.092Z,13.3
2022-11-02T00:29:14.070Z,13.3
2022-11-02T00:34:14.079Z,13.3
2022-11-02T00:39:14.080Z,13.4
2022-11-02T00:44:14.085Z,13.3
2022-11-02T00:49:14.064Z,13.3
2022-11-02T00:54:14.066Z,13.3
2022-11-02T00:59:14.061Z,13.3
2022-11-02T01:04:14.089Z,13.3
2022-11-02T01:09:14.073Z,13.3
2022-11-02T01:14:14.074Z,13.2
2022-11-02T01:19:14.065Z,13.2
2022-11-02T01:24:14.081Z,13.2
2022-11-02T01:29:14.072Z,13.2
2022-11-02T01:34:14.071Z,13.2
2022-11-02T01:39:14.059Z,13.1
2022-11-02T01:44:14.087Z,13.1
2022-11-02T01:49:14.059Z,13
2022-11-02T01:54:14.232Z,13.1
2022-11-02T01:59:14.048Z,13.1
2022-11-02T02:04:14.078Z,13.1
2022-11-02T02:09:14.052Z,13.1
2022-11-02T02:14:14.046Z,13
2022-11-02T02:19:14.041Z,13
2022-11-02T02:24:14.077Z,12.9
2022-11-02T02:29:14.076Z,12.9
2022-11-02T02:34:14.085Z,12.9
2022-11-02T02:39:14.039Z,12.8
2022-11-02T02:44:14.194Z,12.8
2022-11-02T02:49:14.035Z,12.8
2022-11-02T02:54:14.034Z,12.8
2022-11-02T02:59:14.030Z,12.8
2022-11-02T03:04:14.070Z,12.8
2022-11-02T03:09:14.035Z,12.7
2022-11-02T03:14:14.032Z,12.6
2022-11-02T03:19:14.036Z,12.6
2022-11-02T03:24:14.063Z,12.5
2022-11-02T03:29:14.043Z,12.5
2022-11-02T03:34:14.033Z,12.4
2022-11-02T03:39:14.040Z,12.4
2022-11-02T03:44:14.076Z,12.4
2022-11-02T03:49:14.028Z,12.3
2022-11-02T03:54:14.024Z,12.4
2022-11-02T03:59:14.021Z,12.3
2022-11-02T04:04:14.052Z,12.2
2022-11-02T04:09:14.020Z,12.2
2022-11-02T04:14:14.024Z,12.2
2022-11-02T04:19:14.016Z,12.2
2022-11-02T04:24:14.041Z,12.1
2022-11-02T04:29:14.012Z,12.1
2022-11-02T04:34:14.033Z,12.1
2022-11-02T04:39:14.006Z,12.1
2022-11-02T04:44:14.037Z,12.1
2022-11-02T04:49:14.012Z,12.1
2022-11-02T04:54:14.021Z,12
2022-11-02T04:59:14.184Z,12
2022-11-02T05:04:14.029Z,12
2022-11-02T05:09:14.013Z,12
2022-11-02T05:14:14.002Z,12
2022-11-02T05:19:14.010Z,11.9
2022-11-02T05:24:14.024Z,11.9
2022-11-02T05:29:14.010Z,11.9
2022-11-02T05:34:13.996Z,11.9
2022-11-02T05:39:13.998Z,11.9
2022-11-02T05:44:14.022Z,11.8
2022-11-02T05:49:13.999Z,11.8
2022-11-02T05:54:13.996Z,11.8
2022-11-02T05:59:13.989Z,11.8
2022-11-02T06:04:14.060Z,11.8
2022-11-02T06:09:13.981Z,11.8
2022-11-02T06:14:13.999Z,11.8
2022-11-02T06:24:14.000Z,11.8
2022-11-02T06:29:14.048Z,11.8
2022-11-02T06:34:13.991Z,11.8
2022-11-02T06:39:13.976Z,11.8
2022-11-02T06:44:14.000Z,11.9
2022-11-02T06:49:13.988Z,12
2022-11-02T06:54:13.981Z,12
2022-11-02T06:59:13.984Z,12
2022-11-02T07:04:14.009Z,12
2022-11-02T07:09:13.984Z,12.1
2022-11-02T07:14:13.995Z,12.1
2022-11-02T07:19:13.996Z,12.2
2022-11-02T07:24:14.014Z,12.2
2022-11-02T07:29:14.086Z,12.3
2022-11-02T07:34:16.847Z,12.3
2022-11-02T07:39:13.981Z,12.4
2022-11-02T07:44:14.012Z,12.5
2022-11-02T07:49:17.382Z,12.6
2022-11-02T07:54:13.985Z,12.7
2022-11-02T07:59:13.983Z,12.9
2022-11-02T08:04:14.088Z,12.9
2022-11-02T08:09:13.969Z,13
2022-11-02T08:14:13.987Z,13
2022-11-02T08:19:13.974Z,13
2022-11-02T08:24:14.007Z,13
2022-11-02T08:29:13.998Z,13
2022-11-02T08:34:14.044Z,13.1
2022-11-02T08:39:18.583Z,13.1
2022-11-02T08:44:14.028Z,13.1
2022-11-02T08:49:14.115Z,13.1
2022-11-02T08:54:14.129Z,13.2
2022-11-02T08:59:14.117Z,13.2
2022-11-02T09:04:14.282Z,13.2
2022-11-02T09:09:14.249Z,13.4
2022-11-02T09:14:14.302Z,13.5
2022-11-02T09:19:14.382Z,13.6
2022-11-02T09:24:14.298Z,13.7
2022-11-02T09:29:14.397Z,13.8
2022-11-02T09:34:14.254Z,14
2022-11-02T09:39:14.264Z,14.1
2022-11-02T09:44:14.355Z,14.2
2022-11-02T09:49:14.261Z,14.4
2022-11-02T09:54:17.261Z,14.5
2022-11-02T09:59:14.253Z,14.7
2022-11-02T10:04:15.046Z,14.8
2022-11-02T10:09:14.261Z,14.9
2022-11-02T10:14:14.336Z,15.2
2022-11-02T10:19:14.263Z,15.3
2022-11-02T10:24:14.274Z,15.5
2022-11-02T10:29:14.243Z,15.6
2022-11-02T10:34:14.270Z,15.7
2022-11-02T10:39:14.256Z,15.7
2022-11-02T10:44:14.265Z,15.8
2022-11-02T10:49:14.255Z,15.8
2022-11-02T10:54:15.071Z,15.9
2022-11-02T10:59:14.248Z,16
2022-11-02T11:04:14.259Z,16
2022-11-02T11:09:14.241Z,16.1
2022-11-02T11:24:14.292Z,16.3
2022-11-02T11:29:14.318Z,16.2
2022-11-02T11:34:14.224Z,16.2
2022-11-02T11:39:14.226Z,16.2
2022-11-02T11:44:14.313Z,16.1
2022-11-02T11:49:14.223Z,16.1
2022-11-02T11:54:14.240Z,16
2022-11-02T11:59:14.222Z,16
2022-11-02T12:04:14.248Z,16
2022-11-02T12:09:14.226Z,16
2022-11-02T12:14:14.229Z,16.1
2022-11-02T12:19:14.216Z,16.2
2022-11-02T12:24:14.247Z,16.2
2022-11-02T12:29:14.221Z,16.3
2022-11-02T12:34:14.563Z,16.4
2022-11-02T12:39:14.235Z,16.4
2022-11-02T12:44:14.242Z,16.4
2022-11-02T12:49:14.224Z,16.4
2022-11-02T12:54:14.208Z,16.4
2022-11-02T12:59:14.208Z,16.4
2022-11-02T13:04:14.238Z,16.5
2022-11-02T13:09:14.207Z,16.6
2022-11-02T13:14:15.492Z,16.7
2022-11-02T13:19:14.315Z,16.8
2022-11-02T13:24:14.244Z,17
2022-11-02T13:29:14.209Z,17
2022-11-02T13:34:14.207Z,17
2022-11-02T13:39:14.214Z,17
2022-11-02T13:44:14.312Z,17
2022-11-02T13:49:14.197Z,17
2022-11-02T13:54:14.219Z,16.9
2022-11-02T13:59:14.192Z,16.8
2022-11-02T14:04:14.223Z,16.7
2022-11-02T14:09:14.210Z,16.6
2022-11-02T14:14:14.223Z,16.6
2022-11-02T14:19:17.709Z,16.6
2022-11-02T14:24:14.372Z,16.6
2022-11-02T14:29:14.341Z,16.5
2022-11-02T14:34:14.383Z,16.5
2022-11-02T14:39:14.469Z,16.5
2022-11-02T14:44:14.598Z,16.4
2022-11-02T14:49:14.522Z,16.4
2022-11-02T14:54:14.561Z,16.3
2022-11-02T14:59:14.798Z,16.2
2022-11-02T15:04:14.665Z,16.2
2022-11-02T15:09:14.670Z,16.2
2022-11-02T15:14:14.764Z,16.1
2022-11-02T15:19:14.792Z,16
2022-11-02T15:24:16.556Z,15.9
2022-11-02T15:29:14.856Z,15.9
2022-11-02T15:34:14.953Z,15.9
2022-11-02T15:39:14.793Z,15.8
2022-11-02T15:44:14.811Z,15.7
2022-11-02T15:49:14.771Z,15.7
2022-11-02T15:54:14.854Z,15.6
2022-11-02T15:59:14.756Z,15.6
2022-11-02T16:09:14.789Z,15.5
2022-11-02T16:14:14.788Z,15.4
2022-11-02T16:19:14.786Z,15.3
2022-11-02T16:24:14.797Z,15.3
2022-11-02T16:29:14.999Z,15.3
2022-11-02T16:34:14.773Z,15.3
2022-11-02T16:39:14.778Z,15.2
2022-11-02T16:44:14.780Z,15.2
2022-11-02T16:49:14.777Z,15.1
2022-11-02T16:54:14.762Z,15.1
2022-11-02T16:59:14.777Z,15
2022-11-02T17:04:14.778Z,14.9
2022-11-02T17:09:14.770Z,14.8
2022-11-02T17:14:14.943Z,14.7
2022-11-02T17:19:15.951Z,14.7
2022-11-02T17:24:14.957Z,14.6
2022-11-02T17:29:14.769Z,14.6
2022-11-02T17:34:14.748Z,14.5
2022-11-02T17:39:14.767Z,14.5
2022-11-02T17:44:14.791Z,14.4
2022-11-02T17:49:14.763Z,14.3
2022-11-02T17:54:14.758Z,14.2
2022-11-02T17:59:14.754Z,14.1
2022-11-02T18:04:14.786Z,14.1
2022-11-02T18:09:14.767Z,14.1
2022-11-02T18:14:14.751Z,14.1
2022-11-02T18:19:14.760Z,14.1
2022-11-02T18:24:14.779Z,14.1
2022-11-02T18:29:14.750Z,14.1
2022-11-02T18:34:14.876Z,13.9
2022-11-02T18:39:14.758Z,13.8
2022-11-02T18:44:15.737Z,13.7
2022-11-02T18:49:14.756Z,13.6
2022-11-02T18:54:14.756Z,13.6
2022-11-02T18:59:14.760Z,13.5
2022-11-02T19:04:17.524Z,13.5
2022-11-02T19:09:14.762Z,13.4
2022-11-02T19:14:14.747Z,13.3
2022-11-02T19:19:14.754Z,13.3
2022-11-02T19:24:14.776Z,13.3
2022-11-02T19:29:14.775Z,13.3
2022-11-02T19:34:14.741Z,13.2
2022-11-02T19:39:14.748Z,13.2
2022-11-02T19:44:14.770Z,13.2
2022-11-02T19:49:14.761Z,13.1
2022-11-02T19:54:14.913Z,13
2022-11-02T19:59:14.752Z,13
2022-11-02T20:04:14.771Z,13
2022-11-02T20:09:14.757Z,12.9
2022-11-02T20:14:14.751Z,12.8
2022-11-02T20:19:14.752Z,12.8
2022-11-02T20:24:14.764Z,12.7
2022-11-02T20:29:17.036Z,12.7
2022-11-02T20:34:14.736Z,12.6
2022-11-02T20:39:14.737Z,12.6
2022-11-02T20:44:14.760Z,12.6
2022-11-02T20:49:21.397Z,12.6
2022-11-02T20:54:14.748Z,12.5
2022-11-02T20:59:14.796Z,12.5
2022-11-02T21:04:20.119Z,12.5
2022-11-02T21:09:14.788Z,12.4
2022-11-02T21:14:14.738Z,12.4
2022-11-02T21:19:14.726Z,12.4
2022-11-02T21:24:14.751Z,12.3
2022-11-02T21:29:14.739Z,12.3
2022-11-02T21:34:14.728Z,12.3
2022-11-02T21:39:14.727Z,12.3
2022-11-02T21:44:14.746Z,12.3
2022-11-02T21:49:14.718Z,12.2
2022-11-02T21:54:14.839Z,12.2
2022-11-02T21:59:14.709Z,12.2
2022-11-02T22:04:14.736Z,12.1
2022-11-02T22:09:14.814Z,12.1
2022-11-02T22:14:14.810Z,12.1
2022-11-02T22:19:14.729Z,12.1
2022-11-02T22:24:14.776Z,12.1
2022-11-02T22:29:14.761Z,12
2022-11-02T22:34:14.718Z,12
2022-11-02T22:39:14.699Z,12
2022-11-02T22:44:14.729Z,12
2022-11-02T22:49:14.702Z,11.9
2022-11-02T22:54:14.701Z,11.9
2022-11-02T22:59:14.702Z,11.9
2022-11-02T23:04:14.732Z,11.9
2022-11-02T23:09:14.714Z,11.9
2022-11-02T23:14:14.704Z,11.8
2022-11-02T23:19:14.693Z,11.8
2022-11-02T23:24:14.721Z,11.7
2022-11-02T23:29:14.709Z,11.8
2022-11-02T23:34:14.714Z,11.7
2022-11-02T23:39:14.691Z,11.7
2022-11-02T23:44:14.839Z,11.6
2022-11-02T23:49:14.694Z,11.6
2022-11-02T23:54:14.693Z,11.5
2022-11-02T23:59:14.684Z,11.5
